createdAt,value
2024-04-18T00:05:59.015Z,101525.81
2024-04-18T00:16:04.468Z,101535.28
2024-04-18T00:26:09.597Z,101541.06
2024-04-18T00:36:14.903Z,101541.81
2024-04-18T00:46:20.173Z,101547.22
2024-04-18T00:56:25.548Z,101550.69
2024-04-18T01:06:30.872Z,101570.69
2024-04-18T01:16:36.329Z,101578.44
2024-04-18T01:26:42.204Z,101582.84
2024-04-18T01:36:47.415Z,101591.28
2024-04-18T01:46:52.590Z,101599.66
2024-04-18T01:56:57.728Z,101611.09
2024-04-18T02:07:02.938Z,101613.38
2024-04-18T02:17:08.162Z,101626.72
2024-04-18T02:27:13.363Z,101640.50
2024-04-18T02:37:18.615Z,101658.88
2024-04-18T02:47:23.904Z,101665.94
2024-04-18T02:57:29.165Z,101676.34
2024-04-18T03:07:34.352Z,101680.94
2024-04-18T03:17:39.936Z,101687.88
2024-04-18T03:27:45.223Z,101702.34
2024-04-18T03:37:50.431Z,101727.59
2024-04-18T03:47:55.690Z,101731.03
2024-04-18T03:58:00.924Z,101728.84
2024-04-18T04:08:06.247Z,101741.28
2024-04-18T04:18:11.423Z,101747.28
2024-04-18T04:28:16.805Z,101760.25
2024-04-18T04:38:21.924Z,101770.38
2024-04-18T04:48:27.311Z,101788.00
2024-04-18T04:58:32.489Z,101802.84
2024-04-18T05:08:37.687Z,101800.94
2024-04-18T05:18:42.888Z,101825.28
2024-04-18T05:28:48.061Z,101844.41
2024-04-18T05:38:53.205Z,101857.66
2024-04-18T05:48:58.389Z,101877.00
2024-04-18T05:59:03.551Z,101886.13
2024-04-18T06:09:08.717Z,101889.34
2024-04-18T06:19:13.884Z,101897.88
2024-04-18T06:29:19.016Z,101903.72
2024-04-18T06:39:24.132Z,101908.19
2024-04-18T06:49:29.282Z,101912.63
2024-04-18T06:59:34.557Z,101927.94
2024-04-18T07:09:39.739Z,101936.69
2024-04-18T07:19:44.882Z,101942.50
2024-04-18T07:29:50.061Z,101952.69
2024-04-18T07:39:55.236Z,101952.16
2024-04-18T07:50:00.411Z,101972.56
2024-04-18T08:00:06.957Z,101965.38
2024-04-18T08:10:15.972Z,101973.06
2024-04-18T08:20:23.434Z,101970.66
2024-04-18T08:30:28.653Z,101990.75
2024-04-18T08:40:52.011Z,101994.88
2024-04-18T08:51:07.496Z,102002.97
2024-04-18T09:01:12.731Z,102000.09
2024-04-18T09:11:17.918Z,102013.50
2024-04-18T09:21:23.170Z,102014.94
2024-04-18T09:31:37.625Z,101983.06
2024-04-18T09:41:50.081Z,102006.63
2024-04-18T09:51:56.915Z,101994.56
2024-04-18T10:02:02.520Z,101994.59
2024-04-18T10:12:10.737Z,101999.13
2024-04-18T10:22:23.824Z,101994.91
2024-04-18T10:32:34.932Z,101996.06
2024-04-18T10:42:41.314Z,101993.91
2024-04-18T10:52:48.259Z,102012.66
2024-04-18T11:02:57.239Z,102016.75
2024-04-18T11:13:02.874Z,102013.66
2024-04-18T11:23:14.778Z,102004.94
2024-04-18T11:33:21.201Z,102001.19
2024-04-18T11:43:26.497Z,101980.56
2024-04-18T11:53:31.620Z,101992.28
2024-04-18T12:03:36.783Z,101993.78
2024-04-18T12:13:46.939Z,102017.56
2024-04-18T12:23:52.096Z,102017.38
2024-04-18T12:33:57.271Z,102013.69
2024-04-18T12:44:02.429Z,101998.88
2024-04-18T12:54:07.570Z,102007.25
2024-04-18T13:04:12.771Z,102013.03
2024-04-18T13:14:33.123Z,102010.72
2024-04-18T13:24:38.384Z,101992.47
2024-04-18T13:34:43.626Z,101989.44
2024-04-18T13:44:53.232Z,101994.78
2024-04-18T13:54:58.513Z,102001.59
2024-04-18T14:05:03.906Z,101999.72
2024-04-18T14:15:09.140Z,101984.03
2024-04-18T14:25:14.486Z,101976.09
2024-04-18T14:35:19.578Z,101961.16
2024-04-18T14:45:24.726Z,101966.59
2024-04-18T14:55:29.930Z,101965.75
2024-04-18T15:05:35.258Z,101969.56
2024-04-18T15:15:43.500Z,101967.28
2024-04-18T15:25:48.683Z,101966.50
2024-04-18T15:35:54.005Z,101978.38
2024-04-18T15:46:02.361Z,101983.47
2024-04-18T15:56:07.968Z,101971.34
2024-04-18T16:06:13.288Z,101973.47
2024-04-18T16:16:18.701Z,101967.31
2024-04-18T16:26:23.947Z,101961.22
2024-04-18T16:36:35.591Z,101971.13
2024-04-18T16:46:43.578Z,101966.28
2024-04-18T16:56:48.799Z,101956.25
2024-04-18T17:06:53.993Z,101957.09
2024-04-18T17:16:59.263Z,101956.19
2024-04-18T17:27:04.936Z,101928.94
2024-04-18T17:37:10.252Z,101928.13
2024-04-18T17:47:15.633Z,101922.13
2024-04-18T17:57:20.809Z,101914.00
2024-04-18T18:07:27.881Z,101904.94
2024-04-18T18:17:33.333Z,101915.06
2024-04-18T18:27:38.701Z,101899.00
2024-04-18T18:37:44.097Z,101903.84
2024-04-18T18:47:49.338Z,101894.09
2024-04-18T18:57:54.469Z,101887.28
2024-04-18T19:07:59.603Z,101894.72
2024-04-18T19:18:05.012Z,101892.03
2024-04-18T19:28:10.245Z,101886.13
2024-04-18T19:38:17.284Z,101875.75
2024-04-18T19:48:22.536Z,101860.91
2024-04-18T19:58:27.835Z,101839.66
2024-04-18T20:08:32.958Z,101829.94
2024-04-18T20:18:38.343Z,101816.56
2024-04-18T20:28:43.618Z,101805.94
2024-04-18T20:38:48.726Z,101779.00
2024-04-18T20:48:54.251Z,101761.66
2024-04-18T20:58:59.467Z,101741.06
2024-04-18T21:09:04.769Z,101731.50
2024-04-18T21:19:10.085Z,101725.13
2024-04-18T21:29:18.117Z,101725.84
2024-04-18T21:39:23.500Z,101722.81
2024-04-18T21:49:28.791Z,101674.13
2024-04-18T21:59:34.045Z,101660.28
2024-04-18T22:09:39.354Z,101636.97
2024-04-18T22:19:44.759Z,101622.50
2024-04-18T22:29:49.938Z,101598.38
2024-04-18T22:39:55.112Z,101571.34
2024-04-18T22:50:00.483Z,101548.56
2024-04-18T23:00:06.301Z,101522.41
2024-04-18T23:10:11.374Z,101505.88
2024-04-18T23:20:16.559Z,101474.16
2024-04-18T23:30:21.698Z,101448.88
2024-04-18T23:40:26.807Z,101430.50
2024-04-18T23:50:41.083Z,101425.03
